sensor_id;sensor_type;location;lat;lon;timestamp;P1;durP1;ratioP1;P2;durP2;ratioP2
71496;SDS011;59317;53.218;5.730;2022-12-17T00:01:42;496.42;;;48.90;;
71496;SDS011;59317;53.218;5.730;2022-12-17T00:04:27;444.83;;;43.90;;
71496;SDS011;59317;53.218;5.730;2022-12-17T00:07:11;523.58;;;50.05;;
71496;SDS011;59317;53.218;5.730;2022-12-17T00:09:56;526.10;;;55.37;;
71496;SDS011;59317;53.218;5.730;2022-12-17T00:12:41;453.63;;;43.50;;
71496;SDS011;59317;53.218;5.730;2022-12-17T00:15:25;498.05;;;47.58;;
71496;SDS011;59317;53.218;5.730;2022-12-17T00:18:10;415.07;;;41.53;;
71496;SDS011;59317;53.218;5.730;2022-12-17T00:20:55;489.13;;;47.55;;
71496;SDS011;59317;53.218;5.730;2022-12-17T00:23:41;474.67;;;48.10;;
71496;SDS011;59317;53.218;5.730;2022-12-17T00:26:26;480.08;;;46.45;;
71496;SDS011;59317;53.218;5.730;2022-12-17T00:29:10;415.53;;;41.70;;
71496;SDS011;59317;53.218;5.730;2022-12-17T00:31:56;433.60;;;46.85;;
71496;SDS011;59317;53.218;5.730;2022-12-17T00:34:41;391.77;;;42.38;;
71496;SDS011;59317;53.218;5.730;2022-12-17T00:37:25;413.05;;;43.28;;
71496;SDS011;59317;53.218;5.730;2022-12-17T00:40:10;381.08;;;40.08;;
71496;SDS011;59317;53.218;5.730;2022-12-17T00:43:02;405.52;;;41.03;;
71496;SDS011;59317;53.218;5.730;2022-12-17T00:45:48;397.65;;;41.83;;
71496;SDS011;59317;53.218;5.730;2022-12-17T00:48:32;457.77;;;44.40;;
71496;SDS011;59317;53.218;5.730;2022-12-17T00:51:17;413.80;;;41.85;;
71496;SDS011;59317;53.218;5.730;2022-12-17T00:54:02;456.35;;;49.00;;
71496;SDS011;59317;53.218;5.730;2022-12-17T00:56:47;258.15;;;31.98;;
71496;SDS011;59317;53.218;5.730;2022-12-17T00:59:31;382.50;;;41.85;;
71496;SDS011;59317;53.218;5.730;2022-12-17T01:02:24;282.40;;;33.10;;
71496;SDS011;59317;53.218;5.730;2022-12-17T01:05:09;288.27;;;38.63;;
71496;SDS011;59317;53.218;5.730;2022-12-17T01:07:54;267.73;;;37.20;;
71496;SDS011;59317;53.218;5.730;2022-12-17T01:10:39;301.73;;;37.85;;
71496;SDS011;59317;53.218;5.730;2022-12-17T01:13:23;341.08;;;40.47;;
71496;SDS011;59317;53.218;5.730;2022-12-17T01:16:09;367.80;;;44.30;;
71496;SDS011;59317;53.218;5.730;2022-12-17T01:18:54;374.13;;;48.38;;
71496;SDS011;59317;53.218;5.730;2022-12-17T01:21:39;355.93;;;46.63;;
71496;SDS011;59317;53.218;5.730;2022-12-17T01:24:24;341.48;;;44.35;;
71496;SDS011;59317;53.218;5.730;2022-12-17T01:27:09;370.92;;;46.22;;
71496;SDS011;59317;53.218;5.730;2022-12-17T01:29:54;276.05;;;40.58;;
71496;SDS011;59317;53.218;5.730;2022-12-17T01:32:39;282.80;;;39.70;;
71496;SDS011;59317;53.218;5.730;2022-12-17T01:35:24;318.70;;;43.20;;
71496;SDS011;59317;53.218;5.730;2022-12-17T01:38:15;309.38;;;43.17;;
71496;SDS011;59317;53.218;5.730;2022-12-17T01:41:00;369.52;;;51.47;;
71496;SDS011;59317;53.218;5.730;2022-12-17T01:43:45;291.70;;;41.13;;
71496;SDS011;59317;53.218;5.730;2022-12-17T01:46:32;349.53;;;48.63;;
71496;SDS011;59317;53.218;5.730;2022-12-17T01:49:18;179.63;;;31.67;;
71496;SDS011;59317;53.218;5.730;2022-12-17T01:52:04;236.97;;;40.17;;
71496;SDS011;59317;53.218;5.730;2022-12-17T01:54:49;233.27;;;42.58;;
71496;SDS011;59317;53.218;5.730;2022-12-17T01:57:34;207.77;;;38.40;;
71496;SDS011;59317;53.218;5.730;2022-12-17T02:00:19;167.35;;;34.17;;
71496;SDS011;59317;53.218;5.730;2022-12-17T02:03:03;176.50;;;36.25;;
71496;SDS011;59317;53.218;5.730;2022-12-17T02:05:54;207.77;;;42.13;;
71496;SDS011;59317;53.218;5.730;2022-12-17T02:08:44;117.50;;;28.15;;
71496;SDS011;59317;53.218;5.730;2022-12-17T02:11:48;196.93;;;42.72;;
71496;SDS011;59317;53.218;5.730;2022-12-17T02:14:47;152.27;;;37.50;;
71496;SDS011;59317;53.218;5.730;2022-12-17T02:17:35;178.23;;;42.58;;
71496;SDS011;59317;53.218;5.730;2022-12-17T02:20:26;203.80;;;42.33;;
71496;SDS011;59317;53.218;5.730;2022-12-17T02:26:01;152.03;;;35.47;;
71496;SDS011;59317;53.218;5.730;2022-12-17T02:28:47;192.18;;;44.30;;
71496;SDS011;59317;53.218;5.730;2022-12-17T02:31:37;130.68;;;33.90;;
71496;SDS011;59317;53.218;5.730;2022-12-17T02:34:25;159.27;;;39.72;;
71496;SDS011;59317;53.218;5.730;2022-12-17T02:37:10;181.23;;;43.50;;
71496;SDS011;59317;53.218;5.730;2022-12-17T02:39:54;183.65;;;40.63;;
71496;SDS011;59317;53.218;5.730;2022-12-17T02:42:40;113.75;;;30.55;;
71496;SDS011;59317;53.218;5.730;2022-12-17T02:45:25;137.17;;;40.47;;
71496;SDS011;59317;53.218;5.730;2022-12-17T02:48:10;147.85;;;36.42;;
71496;SDS011;59317;53.218;5.730;2022-12-17T02:50:58;164.40;;;42.75;;
71496;SDS011;59317;53.218;5.730;2022-12-17T02:53:43;139.77;;;37.70;;
71496;SDS011;59317;53.218;5.730;2022-12-17T02:56:28;130.20;;;37.57;;
71496;SDS011;59317;53.218;5.730;2022-12-17T02:59:12;135.63;;;39.78;;
71496;SDS011;59317;53.218;5.730;2022-12-17T03:01:57;137.90;;;37.55;;
71496;SDS011;59317;53.218;5.730;2022-12-17T03:04:41;146.07;;;38.85;;
71496;SDS011;59317;53.218;5.730;2022-12-17T03:07:26;114.85;;;32.78;;
71496;SDS011;59317;53.218;5.730;2022-12-17T03:10:11;140.27;;;42.63;;
71496;SDS011;59317;53.218;5.730;2022-12-17T03:12:55;114.57;;;35.67;;
71496;SDS011;59317;53.218;5.730;2022-12-17T03:15:40;102.07;;;31.33;;
71496;SDS011;59317;53.218;5.730;2022-12-17T03:18:25;117.97;;;35.88;;
71496;SDS011;59317;53.218;5.730;2022-12-17T03:21:09;111.90;;;34.60;;
71496;SDS011;59317;53.218;5.730;2022-12-17T03:23:54;146.18;;;43.10;;
71496;SDS011;59317;53.218;5.730;2022-12-17T03:26:39;132.85;;;37.17;;
71496;SDS011;59317;53.218;5.730;2022-12-17T03:29:23;122.47;;;33.80;;
71496;SDS011;59317;53.218;5.730;2022-12-17T03:32:08;100.88;;;32.17;;
71496;SDS011;59317;53.218;5.730;2022-12-17T03:34:53;112.93;;;35.97;;
71496;SDS011;59317;53.218;5.730;2022-12-17T03:37:40;101.70;;;33.03;;
71496;SDS011;59317;53.218;5.730;2022-12-17T03:40:24;136.68;;;38.50;;
71496;SDS011;59317;53.218;5.730;2022-12-17T03:43:10;129.77;;;37.70;;
71496;SDS011;59317;53.218;5.730;2022-12-17T03:45:55;144.30;;;38.67;;
71496;SDS011;59317;53.218;5.730;2022-12-17T03:48:40;139.48;;;40.75;;
71496;SDS011;59317;53.218;5.730;2022-12-17T03:51:25;135.53;;;37.30;;
71496;SDS011;59317;53.218;5.730;2022-12-17T03:54:09;111.00;;;32.95;;
71496;SDS011;59317;53.218;5.730;2022-12-17T03:56:54;144.18;;;39.10;;
71496;SDS011;59317;53.218;5.730;2022-12-17T03:59:39;94.03;;;30.40;;
71496;SDS011;59317;53.218;5.730;2022-12-17T04:02:24;51.63;;;22.10;;
71496;SDS011;59317;53.218;5.730;2022-12-17T04:05:08;147.37;;;39.97;;
71496;SDS011;59317;53.218;5.730;2022-12-17T04:07:53;161.07;;;47.72;;
71496;SDS011;59317;53.218;5.730;2022-12-17T04:10:38;155.30;;;41.03;;
71496;SDS011;59317;53.218;5.730;2022-12-17T04:13:22;112.20;;;34.15;;
71496;SDS011;59317;53.218;5.730;2022-12-17T04:16:07;154.40;;;41.95;;
71496;SDS011;59317;53.218;5.730;2022-12-17T04:18:52;138.50;;;37.63;;
71496;SDS011;59317;53.218;5.730;2022-12-17T04:21:37;152.48;;;41.20;;
71496;SDS011;59317;53.218;5.730;2022-12-17T04:24:22;121.13;;;36.35;;
71496;SDS011;59317;53.218;5.730;2022-12-17T04:27:06;133.95;;;35.88;;
71496;SDS011;59317;53.218;5.730;2022-12-17T04:29:51;154.75;;;41.15;;
71496;SDS011;59317;53.218;5.730;2022-12-17T04:32:36;153.57;;;40.83;;
71496;SDS011;59317;53.218;5.730;2022-12-17T04:35:20;161.45;;;40.35;;
71496;SDS011;59317;53.218;5.730;2022-12-17T04:38:05;141.02;;;36.45;;
71496;SDS011;59317;53.218;5.730;2022-12-17T04:40:49;135.43;;;39.35;;
71496;SDS011;59317;53.218;5.730;2022-12-17T04:43:34;131.50;;;35.95;;
71496;SDS011;59317;53.218;5.730;2022-12-17T04:46:19;134.02;;;37.72;;
71496;SDS011;59317;53.218;5.730;2022-12-17T04:49:03;91.30;;;29.07;;
71496;SDS011;59317;53.218;5.730;2022-12-17T04:51:48;80.60;;;25.02;;
71496;SDS011;59317;53.218;5.730;2022-12-17T04:54:33;88.70;;;30.05;;
71496;SDS011;59317;53.218;5.730;2022-12-17T04:57:17;129.03;;;38.27;;
71496;SDS011;59317;53.218;5.730;2022-12-17T05:00:02;126.68;;;37.03;;
71496;SDS011;59317;53.218;5.730;2022-12-17T05:02:47;128.67;;;35.57;;
71496;SDS011;59317;53.218;5.730;2022-12-17T05:05:51;130.60;;;38.75;;
71496;SDS011;59317;53.218;5.730;2022-12-17T05:08:36;145.75;;;41.42;;
71496;SDS011;59317;53.218;5.730;2022-12-17T05:11:21;153.43;;;39.60;;
71496;SDS011;59317;53.218;5.730;2022-12-17T05:14:06;132.02;;;36.25;;
71496;SDS011;59317;53.218;5.730;2022-12-17T05:16:50;144.18;;;36.90;;
71496;SDS011;59317;53.218;5.730;2022-12-17T05:19:35;130.97;;;34.73;;
71496;SDS011;59317;53.218;5.730;2022-12-17T05:22:20;132.63;;;36.65;;
71496;SDS011;59317;53.218;5.730;2022-12-17T05:25:04;108.10;;;33.63;;
71496;SDS011;59317;53.218;5.730;2022-12-17T05:27:50;129.05;;;37.95;;
71496;SDS011;59317;53.218;5.730;2022-12-17T05:30:34;133.13;;;41.05;;
71496;SDS011;59317;53.218;5.730;2022-12-17T05:33:19;101.70;;;34.05;;
71496;SDS011;59317;53.218;5.730;2022-12-17T05:36:04;133.88;;;38.50;;
71496;SDS011;59317;53.218;5.730;2022-12-17T05:38:48;90.00;;;31.25;;
71496;SDS011;59317;53.218;5.730;2022-12-17T05:41:33;91.05;;;31.52;;
71496;SDS011;59317;53.218;5.730;2022-12-17T05:44:18;114.37;;;35.70;;
71496;SDS011;59317;53.218;5.730;2022-12-17T05:47:02;127.72;;;39.67;;
71496;SDS011;59317;53.218;5.730;2022-12-17T05:49:47;70.22;;;26.50;;
71496;SDS011;59317;53.218;5.730;2022-12-17T05:52:32;118.72;;;36.45;;
71496;SDS011;59317;53.218;5.730;2022-12-17T05:55:16;67.55;;;23.95;;
71496;SDS011;59317;53.218;5.730;2022-12-17T05:58:05;84.88;;;30.60;;
71496;SDS011;59317;53.218;5.730;2022-12-17T06:00:56;85.38;;;33.65;;
71496;SDS011;59317;53.218;5.730;2022-12-17T06:03:41;78.50;;;27.77;;
71496;SDS011;59317;53.218;5.730;2022-12-17T06:06:26;121.78;;;38.05;;
71496;SDS011;59317;53.218;5.730;2022-12-17T06:09:11;101.90;;;33.80;;
71496;SDS011;59317;53.218;5.730;2022-12-17T06:11:55;58.45;;;24.38;;
71496;SDS011;59317;53.218;5.730;2022-12-17T06:14:40;117.27;;;38.00;;
71496;SDS011;59317;53.218;5.730;2022-12-17T06:17:25;101.03;;;36.15;;
71496;SDS011;59317;53.218;5.730;2022-12-17T06:20:10;93.38;;;34.53;;
71496;SDS011;59317;53.218;5.730;2022-12-17T06:23:02;111.05;;;36.50;;
71496;SDS011;59317;53.218;5.730;2022-12-17T06:25:47;87.30;;;30.58;;
71496;SDS011;59317;53.218;5.730;2022-12-17T06:28:32;106.93;;;40.23;;
71496;SDS011;59317;53.218;5.730;2022-12-17T06:31:17;112.53;;;39.72;;
71496;SDS011;59317;53.218;5.730;2022-12-17T06:34:01;73.07;;;27.50;;
71496;SDS011;59317;53.218;5.730;2022-12-17T06:36:46;95.60;;;33.33;;
71496;SDS011;59317;53.218;5.730;2022-12-17T06:39:31;135.88;;;41.67;;
71496;SDS011;59317;53.218;5.730;2022-12-17T06:42:15;123.23;;;37.83;;
71496;SDS011;59317;53.218;5.730;2022-12-17T06:45:02;102.38;;;32.42;;
71496;SDS011;59317;53.218;5.730;2022-12-17T06:47:48;110.57;;;36.75;;
71496;SDS011;59317;53.218;5.730;2022-12-17T06:50:33;97.03;;;34.22;;
71496;SDS011;59317;53.218;5.730;2022-12-17T06:53:17;119.78;;;37.40;;
71496;SDS011;59317;53.218;5.730;2022-12-17T06:56:02;120.33;;;41.30;;
71496;SDS011;59317;53.218;5.730;2022-12-17T06:58:47;88.47;;;29.42;;
71496;SDS011;59317;53.218;5.730;2022-12-17T07:01:31;111.90;;;38.47;;
71496;SDS011;59317;53.218;5.730;2022-12-17T07:04:16;81.70;;;30.23;;
71496;SDS011;59317;53.218;5.730;2022-12-17T07:07:01;110.75;;;37.95;;
71496;SDS011;59317;53.218;5.730;2022-12-17T07:09:46;86.50;;;32.83;;
71496;SDS011;59317;53.218;5.730;2022-12-17T07:12:30;82.03;;;31.70;;
71496;SDS011;59317;53.218;5.730;2022-12-17T07:15:15;82.67;;;30.27;;
71496;SDS011;59317;53.218;5.730;2022-12-17T07:18:00;79.13;;;29.60;;
71496;SDS011;59317;53.218;5.730;2022-12-17T07:20:46;82.28;;;32.42;;
71496;SDS011;59317;53.218;5.730;2022-12-17T07:23:31;66.97;;;27.13;;
71496;SDS011;59317;53.218;5.730;2022-12-17T07:26:16;108.53;;;38.93;;
71496;SDS011;59317;53.218;5.730;2022-12-17T07:29:01;83.13;;;31.85;;
71496;SDS011;59317;53.218;5.730;2022-12-17T07:31:46;66.40;;;27.53;;
71496;SDS011;59317;53.218;5.730;2022-12-17T07:34:48;85.95;;;35.22;;
71496;SDS011;59317;53.218;5.730;2022-12-17T07:37:32;79.73;;;31.57;;
71496;SDS011;59317;53.218;5.730;2022-12-17T07:40:17;64.65;;;25.90;;
71496;SDS011;59317;53.218;5.730;2022-12-17T07:43:08;83.85;;;32.92;;
71496;SDS011;59317;53.218;5.730;2022-12-17T07:45:53;88.10;;;34.42;;
71496;SDS011;59317;53.218;5.730;2022-12-17T07:48:37;55.88;;;24.42;;
71496;SDS011;59317;53.218;5.730;2022-12-17T07:51:22;98.07;;;38.70;;
71496;SDS011;59317;53.218;5.730;2022-12-17T07:54:07;67.90;;;27.52;;
71496;SDS011;59317;53.218;5.730;2022-12-17T07:56:51;85.95;;;35.08;;
71496;SDS011;59317;53.218;5.730;2022-12-17T07:59:36;51.40;;;23.43;;
71496;SDS011;59317;53.218;5.730;2022-12-17T08:02:20;68.75;;;28.10;;
71496;SDS011;59317;53.218;5.730;2022-12-17T08:05:10;57.97;;;26.17;;
71496;SDS011;59317;53.218;5.730;2022-12-17T08:07:55;86.65;;;33.33;;
71496;SDS011;59317;53.218;5.730;2022-12-17T08:10:43;89.90;;;36.13;;
71496;SDS011;59317;53.218;5.730;2022-12-17T08:13:27;85.70;;;30.37;;
71496;SDS011;59317;53.218;5.730;2022-12-17T08:16:12;79.03;;;31.45;;
71496;SDS011;59317;53.218;5.730;2022-12-17T08:18:57;77.82;;;33.25;;
71496;SDS011;59317;53.218;5.730;2022-12-17T08:21:41;90.32;;;35.28;;
71496;SDS011;59317;53.218;5.730;2022-12-17T08:24:26;74.53;;;31.83;;
71496;SDS011;59317;53.218;5.730;2022-12-17T08:27:20;57.43;;;25.07;;
71496;SDS011;59317;53.218;5.730;2022-12-17T08:30:05;53.83;;;23.70;;
71496;SDS011;59317;53.218;5.730;2022-12-17T08:32:50;71.35;;;30.52;;
71496;SDS011;59317;53.218;5.730;2022-12-17T08:35:37;90.23;;;38.10;;
71496;SDS011;59317;53.218;5.730;2022-12-17T08:38:22;52.57;;;25.03;;
71496;SDS011;59317;53.218;5.730;2022-12-17T08:41:07;69.13;;;30.92;;
71496;SDS011;59317;53.218;5.730;2022-12-17T08:43:52;84.47;;;36.83;;
71496;SDS011;59317;53.218;5.730;2022-12-17T08:46:36;59.25;;;30.48;;
71496;SDS011;59317;53.218;5.730;2022-12-17T08:49:21;73.68;;;33.75;;
71496;SDS011;59317;53.218;5.730;2022-12-17T08:52:06;55.10;;;26.00;;
71496;SDS011;59317;53.218;5.730;2022-12-17T08:55:08;53.42;;;26.08;;
71496;SDS011;59317;53.218;5.730;2022-12-17T08:57:57;56.50;;;28.25;;
71496;SDS011;59317;53.218;5.730;2022-12-17T09:00:42;58.33;;;28.25;;
71496;SDS011;59317;53.218;5.730;2022-12-17T09:03:27;82.53;;;36.65;;
71496;SDS011;59317;53.218;5.730;2022-12-17T09:06:11;55.45;;;25.98;;
71496;SDS011;59317;53.218;5.730;2022-12-17T09:08:56;55.75;;;26.88;;
71496;SDS011;59317;53.218;5.730;2022-12-17T09:11:41;67.63;;;30.85;;
71496;SDS011;59317;53.218;5.730;2022-12-17T09:14:26;41.65;;;22.42;;
71496;SDS011;59317;53.218;5.730;2022-12-17T09:17:10;62.42;;;28.05;;
71496;SDS011;59317;53.218;5.730;2022-12-17T09:19:55;80.13;;;38.37;;
71496;SDS011;59317;53.218;5.730;2022-12-17T09:22:39;54.05;;;26.38;;
71496;SDS011;59317;53.218;5.730;2022-12-17T09:25:24;50.70;;;25.70;;
71496;SDS011;59317;53.218;5.730;2022-12-17T09:28:09;72.30;;;33.75;;
71496;SDS011;59317;53.218;5.730;2022-12-17T09:30:57;64.03;;;33.05;;
71496;SDS011;59317;53.218;5.730;2022-12-17T09:33:42;76.45;;;39.00;;
71496;SDS011;59317;53.218;5.730;2022-12-17T09:36:26;65.33;;;32.20;;
71496;SDS011;59317;53.218;5.730;2022-12-17T09:39:11;62.83;;;30.73;;
71496;SDS011;59317;53.218;5.730;2022-12-17T09:50:16;59.58;;;32.35;;
71496;SDS011;59317;53.218;5.730;2022-12-17T09:53:01;72.37;;;35.80;;
71496;SDS011;59317;53.218;5.730;2022-12-17T09:55:47;63.13;;;32.63;;
71496;SDS011;59317;53.218;5.730;2022-12-17T09:58:34;71.78;;;35.67;;
71496;SDS011;59317;53.218;5.730;2022-12-17T10:01:27;58.22;;;31.60;;
71496;SDS011;59317;53.218;5.730;2022-12-17T10:04:15;72.85;;;35.55;;
71496;SDS011;59317;53.218;5.730;2022-12-17T10:07:01;58.95;;;29.25;;
71496;SDS011;59317;53.218;5.730;2022-12-17T10:09:48;66.30;;;33.45;;
71496;SDS011;59317;53.218;5.730;2022-12-17T10:12:34;72.47;;;35.33;;
71496;SDS011;59317;53.218;5.730;2022-12-17T10:15:22;67.00;;;34.47;;
71496;SDS011;59317;53.218;5.730;2022-12-17T10:18:08;52.15;;;30.73;;
71496;SDS011;59317;53.218;5.730;2022-12-17T10:20:56;60.75;;;31.25;;
71496;SDS011;59317;53.218;5.730;2022-12-17T10:23:44;63.38;;;34.30;;
71496;SDS011;59317;53.218;5.730;2022-12-17T10:26:30;62.33;;;32.25;;
71496;SDS011;59317;53.218;5.730;2022-12-17T10:29:19;62.92;;;34.03;;
71496;SDS011;59317;53.218;5.730;2022-12-17T10:32:17;74.18;;;38.65;;
71496;SDS011;59317;53.218;5.730;2022-12-17T10:35:06;59.17;;;31.40;;
71496;SDS011;59317;53.218;5.730;2022-12-17T10:37:52;65.10;;;35.05;;
71496;SDS011;59317;53.218;5.730;2022-12-17T10:40:36;67.43;;;35.70;;
71496;SDS011;59317;53.218;5.730;2022-12-17T10:43:26;61.55;;;31.25;;
71496;SDS011;59317;53.218;5.730;2022-12-17T10:46:14;50.33;;;24.70;;
71496;SDS011;59317;53.218;5.730;2022-12-17T10:49:12;74.40;;;35.72;;
71496;SDS011;59317;53.218;5.730;2022-12-17T10:51:58;67.63;;;32.90;;
71496;SDS011;59317;53.218;5.730;2022-12-17T10:54:43;63.47;;;31.60;;
71496;SDS011;59317;53.218;5.730;2022-12-17T10:57:37;47.90;;;26.63;;
71496;SDS011;59317;53.218;5.730;2022-12-17T11:00:26;64.38;;;36.00;;
71496;SDS011;59317;53.218;5.730;2022-12-17T11:06:13;68.35;;;35.58;;
71496;SDS011;59317;53.218;5.730;2022-12-17T11:08:59;59.47;;;29.85;;
71496;SDS011;59317;53.218;5.730;2022-12-17T11:11:45;64.53;;;32.35;;
71496;SDS011;59317;53.218;5.730;2022-12-17T11:14:31;66.28;;;34.67;;
71496;SDS011;59317;53.218;5.730;2022-12-17T11:17:18;66.68;;;34.60;;
71496;SDS011;59317;53.218;5.730;2022-12-17T11:20:25;62.47;;;32.38;;
71496;SDS011;59317;53.218;5.730;2022-12-17T11:23:13;60.50;;;32.22;;
71496;SDS011;59317;53.218;5.730;2022-12-17T11:26:08;62.88;;;33.15;;
71496;SDS011;59317;53.218;5.730;2022-12-17T11:28:53;53.15;;;30.10;;
71496;SDS011;59317;53.218;5.730;2022-12-17T11:37:12;57.50;;;33.50;;
71496;SDS011;59317;53.218;5.730;2022-12-17T11:46:18;62.13;;;33.45;;
71496;SDS011;59317;53.218;5.730;2022-12-17T11:50:04;66.38;;;36.00;;
71496;SDS011;59317;53.218;5.730;2022-12-17T11:58:21;60.58;;;32.45;;
71496;SDS011;59317;53.218;5.730;2022-12-17T12:01:13;55.30;;;32.25;;
71496;SDS011;59317;53.218;5.730;2022-12-17T12:09:51;57.23;;;32.50;;
71496;SDS011;59317;53.218;5.730;2022-12-17T12:30:07;47.65;;;26.63;;
71496;SDS011;59317;53.218;5.730;2022-12-17T12:35:58;54.72;;;32.10;;
71496;SDS011;59317;53.218;5.730;2022-12-17T12:38:43;52.65;;;30.25;;
71496;SDS011;59317;53.218;5.730;2022-12-17T12:44:23;63.88;;;33.63;;
71496;SDS011;59317;53.218;5.730;2022-12-17T12:47:12;56.50;;;28.52;;
71496;SDS011;59317;53.218;5.730;2022-12-17T12:50:04;63.40;;;32.97;;
71496;SDS011;59317;53.218;5.730;2022-12-17T12:52:53;46.70;;;27.52;;
71496;SDS011;59317;53.218;5.730;2022-12-17T12:55:40;65.43;;;35.55;;
71496;SDS011;59317;53.218;5.730;2022-12-17T12:58:30;50.53;;;29.52;;
71496;SDS011;59317;53.218;5.730;2022-12-17T13:01:19;57.87;;;33.10;;
71496;SDS011;59317;53.218;5.730;2022-12-17T13:04:31;58.08;;;34.50;;
71496;SDS011;59317;53.218;5.730;2022-12-17T13:07:24;57.17;;;33.83;;
71496;SDS011;59317;53.218;5.730;2022-12-17T13:09:52;49.47;;;29.48;;
71496;SDS011;59317;53.218;5.730;2022-12-17T13:12:21;52.55;;;30.35;;
71496;SDS011;59317;53.218;5.730;2022-12-17T13:14:57;56.63;;;32.03;;
71496;SDS011;59317;53.218;5.730;2022-12-17T13:17:34;52.63;;;28.98;;
71496;SDS011;59317;53.218;5.730;2022-12-17T13:20:03;51.53;;;28.90;;
71496;SDS011;59317;53.218;5.730;2022-12-17T13:25:34;58.80;;;32.78;;
71496;SDS011;59317;53.218;5.730;2022-12-17T13:28:00;45.92;;;26.85;;
71496;SDS011;59317;53.218;5.730;2022-12-17T13:30:35;54.50;;;33.08;;
71496;SDS011;59317;53.218;5.730;2022-12-17T13:38:25;63.53;;;36.63;;
71496;SDS011;59317;53.218;5.730;2022-12-17T13:41:12;63.80;;;37.63;;
71496;SDS011;59317;53.218;5.730;2022-12-17T13:46:04;61.00;;;33.35;;
71496;SDS011;59317;53.218;5.730;2022-12-17T13:48:30;52.17;;;29.80;;
71496;SDS011;59317;53.218;5.730;2022-12-17T13:50:57;61.27;;;37.23;;
71496;SDS011;59317;53.218;5.730;2022-12-17T13:53:24;56.90;;;33.03;;
71496;SDS011;59317;53.218;5.730;2022-12-17T13:55:52;60.78;;;36.20;;
71496;SDS011;59317;53.218;5.730;2022-12-17T13:58:20;52.17;;;30.77;;
71496;SDS011;59317;53.218;5.730;2022-12-17T14:00:46;55.90;;;31.77;;
71496;SDS011;59317;53.218;5.730;2022-12-17T14:03:16;59.23;;;36.07;;
71496;SDS011;59317;53.218;5.730;2022-12-17T14:05:44;62.10;;;33.75;;
71496;SDS011;59317;53.218;5.730;2022-12-17T14:08:17;65.43;;;34.30;;
71496;SDS011;59317;53.218;5.730;2022-12-17T14:10:51;65.10;;;36.27;;
71496;SDS011;59317;53.218;5.730;2022-12-17T14:13:37;54.47;;;28.75;;
71496;SDS011;59317;53.218;5.730;2022-12-17T14:16:04;61.05;;;35.45;;
71496;SDS011;59317;53.218;5.730;2022-12-17T14:18:30;61.45;;;32.38;;
71496;SDS011;59317;53.218;5.730;2022-12-17T14:20:56;60.13;;;32.72;;
71496;SDS011;59317;53.218;5.730;2022-12-17T14:23:26;69.13;;;35.38;;
71496;SDS011;59317;53.218;5.730;2022-12-17T14:25:53;67.70;;;35.85;;
71496;SDS011;59317;53.218;5.730;2022-12-17T14:28:32;66.43;;;36.10;;
71496;SDS011;59317;53.218;5.730;2022-12-17T14:31:05;56.40;;;30.63;;
71496;SDS011;59317;53.218;5.730;2022-12-17T14:33:34;66.25;;;35.45;;
71496;SDS011;59317;53.218;5.730;2022-12-17T14:36:02;52.10;;;29.37;;
71496;SDS011;59317;53.218;5.730;2022-12-17T14:38:30;56.70;;;30.50;;
71496;SDS011;59317;53.218;5.730;2022-12-17T14:41:00;54.45;;;28.83;;
71496;SDS011;59317;53.218;5.730;2022-12-17T14:43:27;67.35;;;36.10;;
71496;SDS011;59317;53.218;5.730;2022-12-17T14:45:56;47.22;;;25.38;;
71496;SDS011;59317;53.218;5.730;2022-12-17T14:48:41;42.35;;;23.27;;
71496;SDS011;59317;53.218;5.730;2022-12-17T14:51:38;70.75;;;38.20;;
71496;SDS011;59317;53.218;5.730;2022-12-17T14:56:30;70.45;;;33.72;;
71496;SDS011;59317;53.218;5.730;2022-12-17T14:58:56;53.20;;;27.42;;
71496;SDS011;59317;53.218;5.730;2022-12-17T15:01:22;62.80;;;33.10;;
71496;SDS011;59317;53.218;5.730;2022-12-17T15:03:48;65.95;;;33.58;;
71496;SDS011;59317;53.218;5.730;2022-12-17T15:06:18;72.47;;;34.57;;
71496;SDS011;59317;53.218;5.730;2022-12-17T15:08:45;71.05;;;34.75;;
71496;SDS011;59317;53.218;5.730;2022-12-17T15:11:12;67.03;;;33.97;;
71496;SDS011;59317;53.218;5.730;2022-12-17T15:13:38;54.07;;;29.17;;
71496;SDS011;59317;53.218;5.730;2022-12-17T15:16:04;75.90;;;36.90;;
71496;SDS011;59317;53.218;5.730;2022-12-17T15:18:30;76.30;;;37.83;;
71496;SDS011;59317;53.218;5.730;2022-12-17T15:20:56;73.27;;;36.37;;
71496;SDS011;59317;53.218;5.730;2022-12-17T15:23:23;63.08;;;32.72;;
71496;SDS011;59317;53.218;5.730;2022-12-17T15:25:50;66.38;;;32.85;;
71496;SDS011;59317;53.218;5.730;2022-12-17T15:28:16;69.57;;;32.20;;
71496;SDS011;59317;53.218;5.730;2022-12-17T15:30:43;65.57;;;32.45;;
71496;SDS011;59317;53.218;5.730;2022-12-17T15:33:09;48.13;;;25.48;;
71496;SDS011;59317;53.218;5.730;2022-12-17T15:35:36;57.08;;;26.85;;
71496;SDS011;59317;53.218;5.730;2022-12-17T15:38:03;49.47;;;26.80;;
71496;SDS011;59317;53.218;5.730;2022-12-17T15:40:29;62.97;;;31.17;;
71496;SDS011;59317;53.218;5.730;2022-12-17T15:42:55;62.15;;;31.45;;
71496;SDS011;59317;53.218;5.730;2022-12-17T15:48:03;66.03;;;33.58;;
71496;SDS011;59317;53.218;5.730;2022-12-17T15:50:32;59.05;;;28.05;;
71496;SDS011;59317;53.218;5.730;2022-12-17T15:53:01;65.00;;;31.25;;
71496;SDS011;59317;53.218;5.730;2022-12-17T15:55:28;48.78;;;25.05;;
71496;SDS011;59317;53.218;5.730;2022-12-17T15:57:54;80.50;;;38.70;;
71496;SDS011;59317;53.218;5.730;2022-12-17T16:00:20;64.63;;;29.58;;
71496;SDS011;59317;53.218;5.730;2022-12-17T16:02:48;76.53;;;34.80;;
71496;SDS011;59317;53.218;5.730;2022-12-17T16:05:14;67.35;;;31.45;;
71496;SDS011;59317;53.218;5.730;2022-12-17T16:07:40;61.33;;;28.33;;
71496;SDS011;59317;53.218;5.730;2022-12-17T16:10:10;68.20;;;33.22;;
71496;SDS011;59317;53.218;5.730;2022-12-17T16:12:36;72.60;;;33.58;;
71496;SDS011;59317;53.218;5.730;2022-12-17T16:15:03;66.07;;;33.08;;
71496;SDS011;59317;53.218;5.730;2022-12-17T16:17:29;74.70;;;34.30;;
71496;SDS011;59317;53.218;5.730;2022-12-17T16:19:55;45.65;;;22.52;;
71496;SDS011;59317;53.218;5.730;2022-12-17T16:22:22;65.32;;;29.27;;
71496;SDS011;59317;53.218;5.730;2022-12-17T16:24:48;55.85;;;27.10;;
71496;SDS011;59317;53.218;5.730;2022-12-17T16:27:14;68.15;;;32.72;;
71496;SDS011;59317;53.218;5.730;2022-12-17T16:29:44;59.80;;;29.75;;
71496;SDS011;59317;53.218;5.730;2022-12-17T16:32:14;55.47;;;26.95;;
71496;SDS011;59317;53.218;5.730;2022-12-17T16:34:40;58.88;;;28.92;;
71496;SDS011;59317;53.218;5.730;2022-12-17T16:37:06;60.15;;;29.45;;
71496;SDS011;59317;53.218;5.730;2022-12-17T16:39:33;62.65;;;29.92;;
71496;SDS011;59317;53.218;5.730;2022-12-17T16:41:59;58.40;;;28.35;;
71496;SDS011;59317;53.218;5.730;2022-12-17T16:44:25;85.22;;;37.75;;
71496;SDS011;59317;53.218;5.730;2022-12-17T16:46:51;83.20;;;38.25;;
71496;SDS011;59317;53.218;5.730;2022-12-17T16:49:18;57.67;;;28.63;;
71496;SDS011;59317;53.218;5.730;2022-12-17T16:51:45;75.80;;;34.75;;
71496;SDS011;59317;53.218;5.730;2022-12-17T16:54:12;48.53;;;25.17;;
71496;SDS011;59317;53.218;5.730;2022-12-17T16:56:39;95.57;;;40.53;;
71496;SDS011;59317;53.218;5.730;2022-12-17T16:59:05;84.38;;;37.40;;